Terminal Aerodrome Forecast
Issued by NWS

Home | Current Version | Previous Version | Text Only | Print | Product List | Glossary On
Versions: 1 2 3 4 5 6 7 8 9 10 11 12 13 14 15 16 17 18 19 20 21 22 23 24 25 26 27 28 29 30 31
072
FTUS46 KMTR 270901 AAA
TAFSFO
TAF AMD
KSFO 270901Z 2709/2812 VRB03KT P6SM FEW010
     FM271200 VRB02KT P6SM SCT010
      TEMPO 2712/2714 BKN010
     FM271600 VRB05KT P6SM FEW015
     FM271900 27007KT P6SM SKC
     FM272200 27015KT P6SM SKC
     FM280400 27006KT P6SM SKC=

USA.gov is the U.S. government's official web portal to all federal, state and local government web resources and services.